createdAt,value
2019-01-25T00:02:03.087Z,55.90
2019-01-25T00:04:45.588Z,56.10
2019-01-25T00:07:18.888Z,56.10
2019-01-25T00:09:59.716Z,56.70
2019-01-25T00:12:27.974Z,56.30
2019-01-25T00:15:04.461Z,56.30
2019-01-25T00:17:34.525Z,56.40
2019-01-25T00:20:12.502Z,56.40
2019-01-25T00:22:46.214Z,56.10
2019-01-25T00:25:26.157Z,56.40
2019-01-25T00:28:26.772Z,56.60
2019-01-25T00:31:23.575Z,56.70
2019-01-25T00:34:22.896Z,56.60
2019-01-25T00:37:13.874Z,56.70
2019-01-25T00:40:06.233Z,57.10
2019-01-25T00:42:34.795Z,56.80
2019-01-25T00:45:12.042Z,57.10
2019-01-25T00:47:45.074Z,56.90
2019-01-25T00:50:15.918Z,57.00
2019-01-25T00:52:44.409Z,56.90
2019-01-25T00:55:22.509Z,56.90
2019-01-25T00:58:26.888Z,56.30
2019-01-25T01:01:02.139Z,55.80
2019-01-25T01:03:38.717Z,55.50
2019-01-25T01:06:32.021Z,55.80
2019-01-25T01:09:27.418Z,55.90
2019-01-25T01:12:09.253Z,56.20
2019-01-25T01:14:37.525Z,55.40
2019-01-25T01:17:05.765Z,55.30
2019-01-25T01:19:36.150Z,54.50
2019-01-25T01:22:04.719Z,54.90
2019-01-25T01:24:33.129Z,54.90
2019-01-25T01:27:02.091Z,54.70
2019-01-25T01:30:04.297Z,54.90
2019-01-25T01:33:05.577Z,55.40
2019-01-25T01:35:35.766Z,55.90
2019-01-25T01:38:07.969Z,55.80
2019-01-25T01:40:44.566Z,56.20
2019-01-25T01:43:16.962Z,55.80
2019-01-25T01:46:06.539Z,56.00
2019-01-25T01:48:43.532Z,56.80
2019-01-25T01:51:23.621Z,56.50
2019-01-25T01:54:18.853Z,56.50
2019-01-25T01:57:13.827Z,56.20
2019-01-25T02:00:10.085Z,56.30
2019-01-25T02:03:11.038Z,56.10
2019-01-25T02:05:41.809Z,56.30
2019-01-25T02:08:09.959Z,56.00
2019-01-25T02:10:38.141Z,56.60
2019-01-25T02:13:06.250Z,56.70
2019-01-25T02:15:36.292Z,56.00
2019-01-25T02:18:04.661Z,55.80
2019-01-25T02:20:32.834Z,56.00
2019-01-25T02:23:01.134Z,55.90
2019-01-25T02:25:29.587Z,55.70
2019-01-25T02:27:57.949Z,55.50
2019-01-25T02:30:26.830Z,55.90
2019-01-25T02:32:55.161Z,55.90
2019-01-25T02:35:23.622Z,55.80
2019-01-25T02:37:52.030Z,55.70
2019-01-25T02:40:23.897Z,56.80
2019-01-25T02:42:52.343Z,56.00
2019-01-25T02:46:08.007Z,56.10
2019-01-25T02:48:51.114Z,56.30
2019-01-25T02:51:52.987Z,56.30
2019-01-25T02:54:30.463Z,56.70
2019-01-25T02:57:05.037Z,56.70
2019-01-25T03:00:09.626Z,57.10
2019-01-25T03:03:07.561Z,57.80
2019-01-25T03:05:50.869Z,58.20
2019-01-25T03:15:28.520Z,59.30
2019-01-25T03:17:56.821Z,59.30
2019-01-25T03:20:25.196Z,60.00
2019-01-25T03:22:53.520Z,61.30
2019-01-25T03:25:24.569Z,61.80
2019-01-25T03:28:00.356Z,60.60
2019-01-25T03:30:40.423Z,60.70
2019-01-25T03:33:24.585Z,61.20
2019-01-25T03:36:03.217Z,62.60
2019-01-25T03:38:31.953Z,62.60
2019-01-25T03:41:01.370Z,62.30
2019-01-25T03:43:29.614Z,61.40
2019-01-25T03:45:58.285Z,61.30
2019-01-25T03:54:54.980Z,61.30
2019-01-25T03:57:47.504Z,61.70
2019-01-25T04:00:29.033Z,62.00
2019-01-25T04:03:03.537Z,62.60
2019-01-25T04:05:42.530Z,63.70
2019-01-25T04:08:31.935Z,63.30
2019-01-25T04:11:03.770Z,64.40
2019-01-25T04:14:23.105Z,65.70
2019-01-25T04:17:58.964Z,64.70
2019-01-25T04:20:29.364Z,64.00
2019-01-25T04:23:07.022Z,64.70
2019-01-25T04:25:46.650Z,64.20
2019-01-25T04:29:04.760Z,65.50
2019-01-25T04:32:05.316Z,66.00
2019-01-25T04:34:40.296Z,65.10
2019-01-25T04:37:11.467Z,64.80
2019-01-25T04:39:43.486Z,62.50
2019-01-25T04:42:18.435Z,61.10
2019-01-25T04:44:51.529Z,60.80
2019-01-25T04:47:33.748Z,59.40
2019-01-25T04:52:58.928Z,58.70
2019-01-25T04:55:35.983Z,58.70
2019-01-25T04:58:30.459Z,58.30
2019-01-25T05:01:14.524Z,57.60
2019-01-25T05:04:02.364Z,57.90
2019-01-25T05:09:51.432Z,57.70
2019-01-25T05:16:02.876Z,57.40
2019-01-25T05:18:41.826Z,57.70
2019-01-25T05:21:18.988Z,57.60
2019-01-25T05:24:10.398Z,57.90
2019-01-25T05:26:47.039Z,57.90
2019-01-25T05:29:19.188Z,57.60
2019-01-25T05:32:16.109Z,58.80
2019-01-25T05:35:08.695Z,57.90
2019-01-25T05:38:04.667Z,58.00
2019-01-25T05:40:32.891Z,58.60
2019-01-25T05:43:01.073Z,58.20
2019-01-25T05:45:29.306Z,58.90
2019-01-25T05:47:57.669Z,58.20
2019-01-25T05:50:25.897Z,59.50
2019-01-25T05:52:58.783Z,58.70
2019-01-25T05:55:40.377Z,58.50
2019-01-25T05:58:35.121Z,58.60
2019-01-25T06:01:15.730Z,58.70
2019-01-25T06:03:49.754Z,58.90
2019-01-25T06:06:17.951Z,59.10
2019-01-25T06:08:46.358Z,59.10
2019-01-25T06:11:14.643Z,59.60
2019-01-25T06:13:43.995Z,59.60
2019-01-25T06:16:12.256Z,59.50
2019-01-25T06:18:40.477Z,59.40
2019-01-25T06:21:08.749Z,59.60
2019-01-25T06:23:36.982Z,60.00
2019-01-25T06:26:06.440Z,60.10
2019-01-25T06:28:34.597Z,60.10
2019-01-25T06:31:02.764Z,59.90
2019-01-25T06:33:30.986Z,60.10
2019-01-25T06:35:59.512Z,60.30
2019-01-25T06:38:27.833Z,60.70
2019-01-25T06:40:56.000Z,60.50
2019-01-25T06:43:24.666Z,60.60
2019-01-25T06:45:53.421Z,60.40
2019-01-25T06:48:21.762Z,60.70
2019-01-25T06:50:49.880Z,61.00
2019-01-25T06:53:18.004Z,61.20
2019-01-25T06:55:46.178Z,60.90
2019-01-25T06:58:36.454Z,60.50
2019-01-25T07:01:24.756Z,60.80
2019-01-25T07:03:52.989Z,61.30
2019-01-25T07:06:21.064Z,61.80
2019-01-25T07:08:49.399Z,61.60
2019-01-25T07:11:17.953Z,61.40
2019-01-25T07:13:46.168Z,61.80
2019-01-25T07:16:14.456Z,62.20
2019-01-25T07:18:42.603Z,62.10
2019-01-25T07:21:10.876Z,62.20
2019-01-25T07:23:39.045Z,62.30
2019-01-25T07:26:07.117Z,62.40
2019-01-25T07:28:35.405Z,62.30
2019-01-25T07:31:03.750Z,62.20
2019-01-25T07:33:32.453Z,62.60
2019-01-25T07:36:01.017Z,62.40
2019-01-25T07:38:29.249Z,63.10
2019-01-25T07:40:57.436Z,63.00
2019-01-25T07:43:25.674Z,64.50
2019-01-25T07:45:53.798Z,63.70
2019-01-25T07:48:21.919Z,63.50
2019-01-25T07:50:50.014Z,63.50
2019-01-25T07:53:18.341Z,64.00
2019-01-25T07:55:46.530Z,64.20
2019-01-25T07:58:14.952Z,64.30
2019-01-25T08:00:43.050Z,63.50
2019-01-25T08:03:11.174Z,63.40
2019-01-25T08:05:39.263Z,63.20
2019-01-25T08:08:07.465Z,63.40
2019-01-25T08:10:35.551Z,63.60
2019-01-25T08:13:03.873Z,64.00
2019-01-25T08:15:32.148Z,64.50
2019-01-25T08:18:00.243Z,64.10
2019-01-25T08:20:28.461Z,63.60
2019-01-25T08:22:56.589Z,63.50
2019-01-25T08:25:41.064Z,63.30
2019-01-25T08:28:31.461Z,63.70
2019-01-25T08:31:24.602Z,62.50
2019-01-25T08:33:52.898Z,62.30
2019-01-25T08:36:21.186Z,62.30
2019-01-25T08:38:49.726Z,61.50
2019-01-25T08:41:17.874Z,62.40
2019-01-25T08:43:46.122Z,60.50
2019-01-25T08:46:14.431Z,59.90
2019-01-25T08:48:42.587Z,59.40
2019-01-25T08:51:11.208Z,60.30
2019-01-25T08:53:41.436Z,59.50
2019-01-25T08:56:09.885Z,58.70
2019-01-25T08:58:38.059Z,59.10
2019-01-25T09:01:06.302Z,59.00
2019-01-25T09:03:34.555Z,59.50
2019-01-25T09:06:02.737Z,59.30
2019-01-25T09:08:31.346Z,59.50
2019-01-25T09:10:59.810Z,60.50
2019-01-25T09:13:28.019Z,59.40
2019-01-25T09:15:56.153Z,58.80
2019-01-25T09:18:24.233Z,59.80
2019-01-25T09:20:52.465Z,59.10
2019-01-25T09:23:20.761Z,58.90
2019-01-25T09:25:48.928Z,58.40
2019-01-25T09:28:16.992Z,58.70
2019-01-25T09:30:45.238Z,58.40
2019-01-25T09:33:13.411Z,58.50
2019-01-25T09:35:41.586Z,59.40
2019-01-25T09:38:09.786Z,58.20
2019-01-25T09:40:37.932Z,58.50
2019-01-25T09:43:06.224Z,58.10
2019-01-25T09:45:34.980Z,58.60
2019-01-25T09:48:03.445Z,58.20
2019-01-25T09:50:31.692Z,58.10
2019-01-25T09:52:59.785Z,58.40
2019-01-25T09:55:27.925Z,58.70
2019-01-25T09:57:57.113Z,58.90
2019-01-25T10:00:41.169Z,58.30
2019-01-25T10:03:09.243Z,58.20
2019-01-25T10:05:37.818Z,57.70
2019-01-25T10:08:06.165Z,58.20
2019-01-25T10:10:34.309Z,58.10
2019-01-25T10:13:02.490Z,58.40
2019-01-25T10:15:30.846Z,58.60
2019-01-25T10:17:59.017Z,58.40
2019-01-25T10:20:27.350Z,58.20
2019-01-25T10:22:55.425Z,58.40
2019-01-25T10:25:23.662Z,58.10
2019-01-25T10:27:51.945Z,58.30
2019-01-25T10:30:22.506Z,57.60
2019-01-25T10:32:50.717Z,57.60
2019-01-25T10:35:19.453Z,56.90
2019-01-25T10:37:47.853Z,57.50
2019-01-25T10:40:17.245Z,57.40
2019-01-25T10:42:52.670Z,56.40
2019-01-25T10:45:18.611Z,56.20
2019-01-25T10:47:46.682Z,56.40
2019-01-25T10:50:15.590Z,55.90
2019-01-25T10:52:43.789Z,55.80
2019-01-25T10:55:12.237Z,55.70
2019-01-25T10:57:40.526Z,55.10
2019-01-25T11:00:11.797Z,54.80
2019-01-25T11:02:40.169Z,53.80
2019-01-25T11:05:10.606Z,52.70
2019-01-25T11:07:39.194Z,53.00
2019-01-25T11:10:07.924Z,52.60
2019-01-25T11:12:36.102Z,52.50
2019-01-25T11:15:05.883Z,52.80
2019-01-25T11:17:36.469Z,52.30
2019-01-25T11:20:07.657Z,52.10
2019-01-25T11:22:35.890Z,52.00
2019-01-25T11:25:05.788Z,51.70
2019-01-25T11:27:33.925Z,51.50
2019-01-25T11:30:02.593Z,51.30
2019-01-25T11:32:30.726Z,51.10
2019-01-25T11:34:58.804Z,51.40
2019-01-25T11:37:26.937Z,50.50
2019-01-25T11:39:55.020Z,51.30
2019-01-25T11:42:23.173Z,51.80
2019-01-25T11:44:51.288Z,50.30
2019-01-25T11:47:19.525Z,51.40
2019-01-25T11:49:47.620Z,50.50
2019-01-25T11:52:15.756Z,51.10
2019-01-25T11:54:43.952Z,51.20
2019-01-25T11:57:12.103Z,51.10
2019-01-25T11:59:40.241Z,51.30
2019-01-25T12:02:08.549Z,50.30
2019-01-25T12:04:37.866Z,50.20
2019-01-25T12:07:06.039Z,50.50
2019-01-25T12:09:34.273Z,50.70
2019-01-25T12:12:02.482Z,49.90
2019-01-25T12:14:30.620Z,50.10
2019-01-25T12:16:58.731Z,49.50
2019-01-25T12:19:26.905Z,49.70
2019-01-25T12:21:55.028Z,50.00
2019-01-25T12:24:23.959Z,49.40
2019-01-25T12:26:52.545Z,49.10
2019-01-25T12:29:20.709Z,50.00
2019-01-25T12:31:48.889Z,49.90
2019-01-25T12:34:17.051Z,49.20
2019-01-25T12:36:45.230Z,50.60
2019-01-25T12:39:13.403Z,49.90
2019-01-25T12:41:41.486Z,49.40
2019-01-25T12:44:09.641Z,49.40
2019-01-25T12:46:37.726Z,50.20
2019-01-25T12:49:05.864Z,50.00
2019-01-25T12:51:56.435Z,50.30
2019-01-25T12:54:24.675Z,50.50
2019-01-25T12:56:53.221Z,51.00
2019-01-25T12:59:21.349Z,51.20
2019-01-25T13:01:51.032Z,49.60
2019-01-25T13:04:19.353Z,50.50
2019-01-25T13:06:47.910Z,49.70
2019-01-25T13:09:16.206Z,50.60
2019-01-25T13:11:44.481Z,50.40
2019-01-25T13:14:12.665Z,49.80
2019-01-25T13:16:40.771Z,50.00
2019-01-25T13:19:08.911Z,49.90
2019-01-25T13:21:37.104Z,49.70
2019-01-25T13:24:05.432Z,50.60
2019-01-25T13:26:33.632Z,50.20
2019-01-25T13:29:01.993Z,49.80
2019-01-25T13:31:30.174Z,49.20
2019-01-25T13:33:58.413Z,49.40
2019-01-25T13:36:26.924Z,49.00
2019-01-25T13:38:55.169Z,49.70
2019-01-25T13:41:27.276Z,49.40
2019-01-25T13:43:53.350Z,49.20
2019-01-25T13:46:21.437Z,49.60
2019-01-25T13:48:49.534Z,49.40
2019-01-25T13:51:18.438Z,49.30
2019-01-25T13:53:46.532Z,50.00
2019-01-25T13:56:14.669Z,49.30
2019-01-25T13:58:42.774Z,49.20
2019-01-25T14:01:11.101Z,49.40
2019-01-25T14:03:39.193Z,49.30
2019-01-25T14:06:07.530Z,49.40
2019-01-25T14:08:35.780Z,49.60
2019-01-25T14:11:04.143Z,50.30
2019-01-25T14:13:34.209Z,49.50
2019-01-25T14:16:02.553Z,49.60
2019-01-25T14:18:30.733Z,49.40
2019-01-25T14:20:58.873Z,49.70
2019-01-25T14:23:27.447Z,50.10
2019-01-25T14:25:55.586Z,50.20
2019-01-25T14:28:23.874Z,50.40
2019-01-25T14:30:52.025Z,50.80
2019-01-25T14:33:20.237Z,50.80
2019-01-25T14:35:48.487Z,51.00
2019-01-25T14:38:17.337Z,51.50
2019-01-25T14:40:45.577Z,51.00
2019-01-25T14:43:13.662Z,51.00
2019-01-25T14:45:41.890Z,51.20
2019-01-25T14:48:10.548Z,51.00
2019-01-25T14:50:38.799Z,51.70
2019-01-25T14:53:07.816Z,51.30
2019-01-25T14:55:36.165Z,51.40
2019-01-25T14:58:05.424Z,51.20
2019-01-25T15:00:33.689Z,51.00
2019-01-25T15:03:02.253Z,51.40
2019-01-25T15:05:30.619Z,51.60
2019-01-25T15:07:58.713Z,51.80
2019-01-25T15:10:27.055Z,52.00
2019-01-25T15:12:57.229Z,52.00
2019-01-25T15:15:25.531Z,52.20
2019-01-25T15:17:53.854Z,52.50
2019-01-25T15:20:29.145Z,52.80
2019-01-25T15:22:57.835Z,52.60
2019-01-25T15:25:26.038Z,52.90
2019-01-25T15:27:54.181Z,53.70
2019-01-25T15:30:24.988Z,53.20
2019-01-25T15:32:53.776Z,53.20
2019-01-25T15:35:22.305Z,53.40
2019-01-25T15:37:50.562Z,53.50
2019-01-25T15:40:19.001Z,53.80
2019-01-25T15:42:47.445Z,53.30
2019-01-25T15:45:16.487Z,53.50
2019-01-25T15:47:45.013Z,53.20
2019-01-25T15:50:18.971Z,54.00
2019-01-25T15:52:47.297Z,54.30
2019-01-25T15:55:15.768Z,53.80
2019-01-25T15:57:44.162Z,54.00
2019-01-25T16:00:14.024Z,54.10
2019-01-25T16:02:42.470Z,54.00
2019-01-25T16:05:13.738Z,54.30
2019-01-25T16:07:42.100Z,54.50
2019-01-25T16:10:12.453Z,55.00
2019-01-25T16:12:41.445Z,54.70
2019-01-25T16:15:12.594Z,54.90
2019-01-25T16:17:41.044Z,55.10
2019-01-25T16:20:10.897Z,55.40
2019-01-25T16:22:39.266Z,55.70
2019-01-25T16:25:10.410Z,55.70
2019-01-25T16:27:38.665Z,56.30
2019-01-25T16:30:10.076Z,56.20
2019-01-25T16:32:38.238Z,56.70
2019-01-25T16:35:06.677Z,56.60
2019-01-25T16:37:34.914Z,56.70
2019-01-25T16:40:03.824Z,56.90
2019-01-25T16:42:31.973Z,57.10
2019-01-25T16:45:00.232Z,57.20
2019-01-25T16:47:28.697Z,57.30
2019-01-25T16:50:01.305Z,57.40
2019-01-25T16:52:29.617Z,57.60
2019-01-25T16:54:57.723Z,57.90
2019-01-25T16:57:26.375Z,57.90
2019-01-25T16:59:54.472Z,58.10
2019-01-25T17:02:22.758Z,58.40
2019-01-25T17:04:51.008Z,58.50
2019-01-25T17:07:19.138Z,58.70
2019-01-25T17:09:47.325Z,58.70
2019-01-25T17:12:15.553Z,59.10
2019-01-25T17:14:43.646Z,59.20
2019-01-25T17:17:11.792Z,59.30
2019-01-25T17:19:39.975Z,59.40
2019-01-25T17:22:08.254Z,59.30
2019-01-25T17:24:37.343Z,59.40
2019-01-25T17:27:05.937Z,59.50
2019-01-25T17:29:34.060Z,59.60
2019-01-25T17:32:02.145Z,59.40
2019-01-25T17:34:30.282Z,59.00
2019-01-25T17:36:58.405Z,58.80
2019-01-25T17:39:27.485Z,59.10
2019-01-25T17:41:55.818Z,58.70
2019-01-25T17:44:23.969Z,58.80
2019-01-25T17:46:52.565Z,58.50
2019-01-25T17:49:20.749Z,58.50
2019-01-25T17:51:50.061Z,58.70
2019-01-25T17:54:18.797Z,59.30
2019-01-25T17:56:47.303Z,59.10
2019-01-25T17:59:16.202Z,59.00
2019-01-25T18:01:44.338Z,59.10
2019-01-25T18:04:12.481Z,59.30
2019-01-25T18:06:40.636Z,58.90
2019-01-25T18:09:08.923Z,59.00
2019-01-25T18:11:37.164Z,58.50
2019-01-25T18:14:05.347Z,58.60
2019-01-25T18:16:33.789Z,58.20
2019-01-25T18:19:01.925Z,58.30
2019-01-25T18:21:30.926Z,58.60
2019-01-25T18:23:59.169Z,59.10
2019-01-25T18:26:27.266Z,58.80
2019-01-25T18:29:07.933Z,58.90
2019-01-25T18:31:36.043Z,59.20
2019-01-25T18:34:05.102Z,59.10
2019-01-25T18:36:33.201Z,59.00
2019-01-25T18:39:01.349Z,59.00
2019-01-25T18:41:29.498Z,59.20
2019-01-25T18:43:57.628Z,59.10
2019-01-25T18:46:25.763Z,58.10
2019-01-25T18:48:53.874Z,58.30
2019-01-25T18:51:22.023Z,58.20
2019-01-25T18:53:50.245Z,58.30
2019-01-25T18:56:20.205Z,58.30
2019-01-25T18:58:48.497Z,58.40
2019-01-25T19:01:16.868Z,58.50
2019-01-25T19:03:45.192Z,58.30
2019-01-25T19:06:14.006Z,58.40
2019-01-25T19:08:42.320Z,58.30
2019-01-25T19:11:11.005Z,58.30
2019-01-25T19:13:39.189Z,58.20
2019-01-25T19:16:07.537Z,58.30
2019-01-25T19:18:36.258Z,58.40
2019-01-25T19:21:04.608Z,58.40
2019-01-25T19:23:33.321Z,58.90
2019-01-25T19:26:01.456Z,59.20
2019-01-25T19:28:29.538Z,59.10
2019-01-25T19:30:57.684Z,59.20
2019-01-25T19:33:25.863Z,59.60
2019-01-25T19:35:56.542Z,59.50
2019-01-25T19:38:24.676Z,59.70
2019-01-25T19:40:52.913Z,59.90
2019-01-25T19:43:21.113Z,59.80
2019-01-25T19:45:49.336Z,59.90
2019-01-25T19:48:17.529Z,60.00
2019-01-25T19:50:45.786Z,60.30
2019-01-25T19:53:13.882Z,60.30
2019-01-25T19:55:46.558Z,60.00
2019-01-25T19:58:18.569Z,60.40
2019-01-25T20:00:52.115Z,60.00
2019-01-25T20:03:23.437Z,60.20
2019-01-25T20:05:51.710Z,60.20
2019-01-25T20:08:19.978Z,60.40
2019-01-25T20:10:48.398Z,60.20
2019-01-25T20:13:16.751Z,60.30
2019-01-25T20:15:45.033Z,60.70
2019-01-25T20:18:13.580Z,60.70
2019-01-25T20:20:43.071Z,60.90
2019-01-25T20:23:11.470Z,60.80
2019-01-25T20:25:48.629Z,61.20
2019-01-25T20:28:18.566Z,61.30
2019-01-25T20:30:49.801Z,61.90
2019-01-25T20:33:17.614Z,62.20
2019-01-25T20:35:46.333Z,62.10
2019-01-25T20:38:15.089Z,62.00
2019-01-25T20:40:43.178Z,62.20
2019-01-25T20:43:12.978Z,62.20
2019-01-25T20:45:41.677Z,62.10
2019-01-25T20:48:10.033Z,62.30
2019-01-25T20:50:38.365Z,62.50
2019-01-25T20:53:17.461Z,62.50
2019-01-25T20:55:49.628Z,64.40
2019-01-25T20:58:23.336Z,63.70
2019-01-25T21:01:01.994Z,63.40
2019-01-25T21:03:30.267Z,63.90
2019-01-25T21:05:58.347Z,64.90
2019-01-25T21:08:26.611Z,65.60
2019-01-25T21:10:55.173Z,66.20
2019-01-25T21:13:23.325Z,66.80
2019-01-25T21:15:51.540Z,67.00
2019-01-25T21:18:19.893Z,67.10
2019-01-25T21:20:48.185Z,66.60
2019-01-25T21:23:16.583Z,66.90
2019-01-25T21:25:45.177Z,67.20
2019-01-25T21:28:13.696Z,67.50
2019-01-25T21:30:42.030Z,68.40
2019-01-25T21:33:10.277Z,68.20
2019-01-25T21:35:38.578Z,68.20
2019-01-25T21:38:17.354Z,67.70
2019-01-25T21:41:08.951Z,68.80
2019-01-25T21:43:59.524Z,69.70
2019-01-25T21:46:59.369Z,70.80
2019-01-25T21:49:41.378Z,71.40
2019-01-25T21:52:15.921Z,72.20
2019-01-25T21:54:44.393Z,72.60
2019-01-25T21:57:12.538Z,73.00
2019-01-25T21:59:40.673Z,72.80
2019-01-25T22:02:09.004Z,72.80
2019-01-25T22:04:37.401Z,73.50
2019-01-25T22:07:05.697Z,73.00
2019-01-25T22:09:33.942Z,72.80
2019-01-25T22:12:02.029Z,73.00
2019-01-25T22:14:30.180Z,73.60
2019-01-25T22:16:58.417Z,74.10
2019-01-25T22:19:26.801Z,74.40
2019-01-25T22:21:55.054Z,73.90
2019-01-25T22:24:24.221Z,73.60
2019-01-25T22:26:52.453Z,73.80
2019-01-25T22:29:20.714Z,74.30
2019-01-25T22:31:48.922Z,73.90
2019-01-25T22:34:36.460Z,74.40
2019-01-25T22:37:04.758Z,74.50
2019-01-25T22:39:32.931Z,74.90
2019-01-25T22:42:01.120Z,75.40
2019-01-25T22:44:29.281Z,75.10
2019-01-25T22:46:57.563Z,75.20
2019-01-25T22:49:25.717Z,74.40
2019-01-25T22:51:54.222Z,74.40
2019-01-25T22:54:22.468Z,74.60
2019-01-25T22:56:53.042Z,74.30
2019-01-25T22:59:21.550Z,73.90
2019-01-25T23:01:50.221Z,74.30
2019-01-25T23:05:06.076Z,75.00
2019-01-25T23:07:41.929Z,76.00
2019-01-25T23:10:19.677Z,76.30
2019-01-25T23:12:47.985Z,76.20
2019-01-25T23:15:17.431Z,76.40
2019-01-25T23:17:45.732Z,76.90
2019-01-25T23:20:14.458Z,77.30
2019-01-25T23:22:42.792Z,76.90
2019-01-25T23:25:11.820Z,77.00
2019-01-25T23:27:39.912Z,77.50
2019-01-25T23:30:16.197Z,77.40
2019-01-25T23:32:44.846Z,77.60
2019-01-25T23:35:13.181Z,77.40
2019-01-25T23:37:41.377Z,77.80
2019-01-25T23:40:12.996Z,78.60
2019-01-25T23:42:41.184Z,78.90
2019-01-25T23:45:11.049Z,79.10
2019-01-25T23:47:39.277Z,78.80
2019-01-25T23:50:10.045Z,78.00
2019-01-25T23:52:47.536Z,77.70
2019-01-25T23:55:15.814Z,78.30
2019-01-25T23:57:44.001Z,79.10
